Currently 78°F in Simi Valley, California, USA
78°F
84°F / 48°F
7 mph W
0.00"
Tuesday, October 15, 2019 4:34 PM PDT

Simi Valley, California Climate Summary
Typical April Day

Normal High:    75.3°F (24.1°C)
Normal Low:    51.0°F (10.5°C)
Average:    62.1°F (16.7°C)

Hour    Temperature    Wind Speed    Humidity
12:00 AM    56°F (13°C)    3 mph    66%
1:00 AM    55°F (13°C)    3 mph    67%
2:00 AM    55°F (13°C)    3 mph    68%
3:00 AM    54°F (12°C)    3 mph    69%
4:00 AM    54°F (12°C)    3 mph    69%
5:00 AM    53°F (12°C)    3 mph    69%
6:00 AM    53°F (12°C)    3 mph    70%
7:00 AM    53°F (12°C)    3 mph    70%
8:00 AM    56°F (13°C)    3 mph    68%
9:00 AM    61°F (16°C)    3 mph    62%
10:00 AM    65°F (18°C)    5 mph    53%
11:00 AM    69°F (20°C)    5 mph    46%
12:00 PM    71°F (22°C)    6 mph    42%
1:00 PM    73°F (23°C)    6 mph    40%
2:00 PM    74°F (23°C)    7 mph    40%
3:00 PM    73°F (23°C)    8 mph    41%
4:00 PM    72°F (22°C)    8 mph    43%
5:00 PM    71°F (21°C)    7 mph    45%
6:00 PM    69°F (20°C)    6 mph    47%
7:00 PM    66°F (19°C)    4 mph    52%
8:00 PM    63°F (17°C)    3 mph    58%
9:00 PM    60°F (16°C)    2 mph    62%
10:00 PM    58°F (15°C)    3 mph    63%
11:00 PM    57°F (14°C)    3 mph    64%
 

The Simi Valley, California weather pages are a service of WeatherCurrents.
Copyright ©2019  WeatherCurrents. All rights reserved. - Submit questions and comments - Privacy Policy